Time;durP1;ratioP1;P1;durP2;ratioP2;P2;SDS_P1;SDS_P2;PMS_P1;PMS_P2;Temp;Humidity;BMP_temperature;BMP_pressure;BME280_temperature;BME280_humidity;BME280_pressure;Samples;Min_cycle;Max_cycle;Signal;HPM_P1;HPM_P2
2024/01/20 00:01:21;;;;;;;2.55;2.35;;;-3.80;94.10;;;;;;5073493;28;20639;-56
2024/01/20 00:03:47;;;;;;;4.13;3.40;;;-4.00;94.20;;;;;;5073586;28;20217;-56
2024/01/20 00:06:12;;;;;;;6.17;3.00;;;-3.90;94.50;;;;;;5073687;28;20531;-56
2024/01/20 00:08:38;;;;;;;7.30;3.20;;;-4.00;94.50;;;;;;5073507;28;20564;-56
2024/01/20 00:11:04;;;;;;;3.93;3.60;;;-3.90;94.70;;;;;;5073383;28;20209;-56
2024/01/20 00:13:29;;;;;;;4.00;3.70;;;-3.80;94.50;;;;;;5084731;22;20270;-57
2024/01/20 00:15:55;;;;;;;2.23;2.13;;;-3.70;94.40;;;;;;5052794;28;20160;-57
2024/01/20 00:18:21;;;;;;;4.90;3.37;;;-3.50;94.50;;;;;;5053020;28;20197;-57
2024/01/20 00:20:47;;;;;;;3.60;2.23;;;-3.30;94.10;;;;;;5052501;28;20170;-57
2024/01/20 00:23:13;;;;;;;4.17;2.13;;;-3.40;93.70;;;;;;5052966;28;20562;-57
2024/01/20 00:25:40;;;;;;;6.68;3.20;;;-3.30;93.60;;;;;;5053215;28;20231;-57
2024/01/20 00:28:06;;;;;;;5.30;3.40;;;-3.40;93.60;;;;;;5053378;28;20201;-57
2024/01/20 00:30:31;;;;;;;2.87;2.63;;;-3.40;93.60;;;;;;5052963;28;20175;-58
2024/01/20 00:32:57;;;;;;;2.83;2.33;;;-3.40;93.50;;;;;;5052838;28;20189;-57
2024/01/20 00:35:22;;;;;;;5.43;3.70;;;-3.50;93.70;;;;;;5053109;28;20196;-57
2024/01/20 00:37:48;;;;;;;4.50;2.23;;;-3.50;93.40;;;;;;5052753;28;20254;-57
2024/01/20 00:40:14;;;;;;;5.50;4.83;;;-3.30;93.40;;;;;;5052898;28;20190;-57
2024/01/20 00:42:42;;;;;;;2.00;1.63;;;-3.10;93.40;;;;;;5052668;28;20698;-56
2024/01/20 00:45:09;;;;;;;3.10;2.60;;;-3.20;92.80;;;;;;5049594;28;20182;-56
2024/01/20 00:47:35;;;;;;;3.10;2.90;;;-3.50;92.60;;;;;;5041836;28;20178;-57
2024/01/20 00:50:04;;;;;;;4.93;4.03;;;-3.40;93.10;;;;;;5042473;28;20205;-56
2024/01/20 00:52:29;;;;;;;9.73;3.00;;;-3.20;92.90;;;;;;5040842;28;20163;-57
2024/01/20 00:54:55;;;;;;;5.17;3.00;;;-3.10;92.70;;;;;;5046947;28;20185;-57
2024/01/20 00:57:20;;;;;;;4.70;2.27;;;-3.10;92.50;;;;;;5044232;28;20663;-58
2024/01/20 00:59:47;;;;;;;6.60;3.97;;;-3.10;92.30;;;;;;5032593;28;20191;-57
2024/01/20 01:02:15;;;;;;;5.03;3.72;;;-3.10;92.30;;;;;;5032314;28;20162;-57
2024/01/20 01:04:43;;;;;;;4.30;4.00;;;-3.00;91.90;;;;;;5032612;28;20198;-52
2024/01/20 01:07:08;;;;;;;2.80;2.33;;;-2.90;92.20;;;;;;5025965;28;20257;-57
2024/01/20 01:09:37;;;;;;;3.77;3.47;;;-2.80;92.30;;;;;;5050857;28;20627;-56
2024/01/20 01:12:03;;;;;;;3.75;3.40;;;-2.80;92.00;;;;;;5044322;28;20275;-57
2024/01/20 01:14:28;;;;;;;3.23;2.93;;;-3.00;92.30;;;;;;5052101;28;20252;-57
2024/01/20 01:16:54;;;;;;;4.00;3.70;;;-3.00;92.30;;;;;;5052239;28;20451;-57
2024/01/20 01:19:20;;;;;;;4.20;3.30;;;-3.00;92.60;;;;;;5052118;28;20273;-57
2024/01/20 01:21:45;;;;;;;5.00;3.63;;;-2.90;92.70;;;;;;5051782;28;20170;-57
2024/01/20 01:24:11;;;;;;;3.10;2.80;;;-2.90;92.20;;;;;;5052121;28;20188;-57
2024/01/20 01:26:37;;;;;;;3.67;3.33;;;-3.00;91.50;;;;;;5052066;28;20178;-57
2024/01/20 01:29:02;;;;;;;5.83;3.20;;;-3.00;91.70;;;;;;5051943;28;20417;-57
2024/01/20 01:31:28;;;;;;;2.50;2.30;;;-3.00;91.90;;;;;;5051714;28;20228;-57
2024/01/20 01:33:53;;;;;;;3.70;2.03;;;-3.00;91.80;;;;;;5051805;28;20201;-57
2024/01/20 01:36:19;;;;;;;6.40;3.83;;;-2.90;92.00;;;;;;5051886;28;20595;-57
2024/01/20 01:38:45;;;;;;;4.93;3.97;;;-2.90;92.00;;;;;;5051609;28;20252;-57
2024/01/20 01:41:10;;;;;;;3.67;2.50;;;-2.80;92.00;;;;;;5051585;28;20249;-57
2024/01/20 01:43:36;;;;;;;4.50;3.03;;;-2.80;91.70;;;;;;5051643;28;20182;-57
2024/01/20 01:46:03;;;;;;;4.13;2.40;;;-3.10;91.50;;;;;;5051736;28;20166;-57
2024/01/20 01:48:28;;;;;;;6.50;3.90;;;-3.10;91.80;;;;;;5051587;28;20178;-57
2024/01/20 01:50:57;;;;;;;2.60;2.40;;;-3.10;92.00;;;;;;5051350;28;20174;-57
2024/01/20 01:53:23;;;;;;;3.83;2.97;;;-3.10;91.70;;;;;;5051408;28;20284;-57
2024/01/20 01:55:50;;;;;;;10.53;2.50;;;-3.20;91.70;;;;;;5051565;28;20260;-57
2024/01/20 01:58:15;;;;;;;4.28;3.15;;;-3.20;91.80;;;;;;5051486;28;20948;-57
2024/01/20 02:00:41;;;;;;;2.80;2.60;;;-3.40;91.70;;;;;;5051409;28;20178;-57
2024/01/20 02:03:09;;;;;;;5.93;5.10;;;-3.20;92.00;;;;;;5051055;28;20381;-57
2024/01/20 02:05:35;;;;;;;5.82;4.07;;;-3.00;92.20;;;;;;5051321;28;20909;-57
2024/01/20 02:08:01;;;;;;;5.13;3.13;;;-2.80;92.10;;;;;;5050930;28;20182;-57
2024/01/20 02:10:28;;;;;;;6.15;4.45;;;-2.80;91.70;;;;;;5051022;28;20594;-57
2024/01/20 02:12:54;;;;;;;4.80;3.92;;;-2.70;91.70;;;;;;5051204;28;20209;-57
2024/01/20 02:15:19;;;;;;;2.70;2.30;;;-2.70;91.60;;;;;;5051417;28;20257;-57
2024/01/20 02:17:52;;;;;;;4.17;2.90;;;-2.80;91.60;;;;;;5051128;28;20419;-57
2024/01/20 02:20:18;;;;;;;8.10;3.22;;;-2.80;91.40;;;;;;5051323;28;20413;-58
2024/01/20 02:22:44;;;;;;;2.80;2.60;;;-2.90;91.30;;;;;;5051239;28;20582;-57
2024/01/20 02:25:10;;;;;;;4.03;2.70;;;-2.90;91.40;;;;;;5051213;28;20846;-57
2024/01/20 02:27:35;;;;;;;3.83;3.47;;;-2.90;91.70;;;;;;5051209;28;20170;-57
2024/01/20 02:30:01;;;;;;;2.33;2.10;;;-3.00;91.70;;;;;;5051204;28;20165;-57
2024/01/20 02:32:26;;;;;;;3.93;3.60;;;-3.10;92.10;;;;;;5050909;28;20173;-57
2024/01/20 02:34:52;;;;;;;4.20;3.80;;;-3.00;91.80;;;;;;5051146;28;20228;-57
2024/01/20 02:37:18;;;;;;;21.07;3.27;;;-2.90;91.70;;;;;;5051129;28;20194;-57
2024/01/20 02:39:44;;;;;;;3.73;2.70;;;-2.90;91.60;;;;;;5051017;28;20201;-57
2024/01/20 02:42:10;;;;;;;3.60;2.20;;;-3.00;91.30;;;;;;5050763;28;20409;-57
2024/01/20 02:44:39;;;;;;;2.90;2.60;;;-3.20;91.40;;;;;;5050961;28;20432;-56
2024/01/20 02:47:05;;;;;;;6.00;3.40;;;-3.30;91.60;;;;;;5050954;28;20546;-57
2024/01/20 02:49:32;;;;;;;2.13;1.67;;;-3.40;91.30;;;;;;5051001;28;20173;-57
2024/01/20 02:51:58;;;;;;;3.42;1.88;;;-3.40;91.20;;;;;;5050699;28;20443;-57
2024/01/20 02:54:23;;;;;;;4.28;3.45;;;-3.30;91.30;;;;;;5050879;28;20598;-57
2024/01/20 02:56:49;;;;;;;3.03;2.67;;;-3.40;91.10;;;;;;5050989;28;20178;-57
2024/01/20 02:59:14;;;;;;;2.00;1.80;;;-3.40;91.30;;;;;;5050835;28;20204;-57
2024/01/20 03:01:40;;;;;;;2.43;2.33;;;-3.40;91.00;;;;;;5050602;28;20170;-57
2024/01/20 03:04:06;;;;;;;3.80;3.47;;;-3.40;90.90;;;;;;5050995;28;20683;-57
2024/01/20 03:06:32;;;;;;;2.20;1.97;;;-3.50;91.00;;;;;;5050992;28;20174;-57
2024/01/20 03:08:58;;;;;;;4.00;3.00;;;-3.50;91.30;;;;;;5050571;28;20547;-57
2024/01/20 03:11:24;;;;;;;2.50;2.30;;;-3.70;91.10;;;;;;5050627;28;20186;-57
2024/01/20 03:13:50;;;;;;;4.90;2.60;;;-3.60;91.30;;;;;;5050466;28;20690;-58
2024/01/20 03:16:15;;;;;;;4.43;3.03;;;-3.60;91.20;;;;;;5050734;28;20179;-57
2024/01/20 03:18:41;;;;;;;2.00;1.17;;;-3.60;91.10;;;;;;5050569;28;20280;-57
2024/01/20 03:21:07;;;;;;;3.40;2.30;;;-3.70;91.00;;;;;;5053610;28;20174;-57
2024/01/20 03:23:33;;;;;;;3.33;3.10;;;-3.60;90.90;;;;;;5054268;28;20695;-57
2024/01/20 03:26:04;;;;;;;2.15;2.03;;;-3.60;91.00;;;;;;5054298;28;20435;-57
2024/01/20 03:28:30;;;;;;;3.38;1.98;;;-3.60;91.00;;;;;;5054351;28;20174;-57
2024/01/20 03:30:56;;;;;;;2.07;1.97;;;-3.60;91.30;;;;;;5054126;28;20220;-58
2024/01/20 03:33:21;;;;;;;2.07;1.90;;;-3.60;91.20;;;;;;5036109;28;20683;-57
2024/01/20 03:35:47;;;;;;;4.37;2.90;;;-3.60;91.00;;;;;;5054130;28;20181;-57
2024/01/20 03:38:12;;;;;;;4.30;2.43;;;-3.70;91.10;;;;;;5054051;28;20197;-57
2024/01/20 03:40:38;;;;;;;3.00;2.70;;;-3.80;91.30;;;;;;5053952;28;20172;-57
2024/01/20 03:43:04;;;;;;;2.37;2.10;;;-3.80;91.40;;;;;;5053763;28;20213;-57
2024/01/20 03:45:29;;;;;;;2.23;2.03;;;-3.90;91.50;;;;;;5053966;28;20589;-57
2024/01/20 03:47:55;;;;;;;2.67;1.57;;;-4.10;91.50;;;;;;5053894;28;20177;-57
2024/01/20 03:50:21;;;;;;;1.27;1.00;;;-4.10;91.30;;;;;;5053769;28;20170;-57
2024/01/20 03:52:47;;;;;;;1.90;1.80;;;-4.10;91.00;;;;;;5053454;28;20671;-56
2024/01/20 03:55:13;;;;;;;3.33;1.75;;;-4.00;90.60;;;;;;5052402;28;20527;-57
2024/01/20 03:57:38;;;;;;;4.87;2.53;;;-3.90;90.80;;;;;;5053523;28;20302;-57
2024/01/20 04:00:05;;;;;;;5.10;1.90;;;-4.00;90.70;;;;;;5053411;28;20475;-57
2024/01/20 04:02:30;;;;;;;2.55;2.25;;;-4.00;90.60;;;;;;5053024;28;20180;-57
2024/01/20 04:04:56;;;;;;;1.20;1.17;;;-3.90;90.40;;;;;;5053557;28;20261;-57
2024/01/20 04:07:22;;;;;;;1.53;1.43;;;-3.90;90.50;;;;;;5053427;28;20173;-57
2024/01/20 04:09:47;;;;;;;7.20;1.80;;;-4.00;90.30;;;;;;5053429;28;20359;-57
2024/01/20 04:12:13;;;;;;;1.13;1.10;;;-4.00;90.50;;;;;;5053214;28;20257;-57
2024/01/20 04:14:38;;;;;;;1.50;1.40;;;-3.90;90.40;;;;;;5053271;28;20250;-57
2024/01/20 04:17:04;;;;;;;3.50;2.10;;;-4.00;90.00;;;;;;5053177;28;20740;-57
2024/01/20 04:19:30;;;;;;;1.33;1.23;;;-4.10;89.70;;;;;;5053202;28;20604;-57
2024/01/20 04:21:55;;;;;;;2.20;1.33;;;-4.10;89.50;;;;;;5053096;28;20638;-57
2024/01/20 04:24:21;;;;;;;2.20;2.10;;;-4.10;89.80;;;;;;5053369;28;20194;-57
2024/01/20 04:26:46;;;;;;;1.30;1.20;;;-4.10;90.60;;;;;;5053244;28;20609;-57
2024/01/20 04:29:12;;;;;;;1.53;1.23;;;-4.20;90.40;;;;;;5053224;28;20206;-57
2024/01/20 04:31:38;;;;;;;1.20;1.10;;;-4.20;90.70;;;;;;5052303;28;20170;-58
2024/01/20 04:34:04;;;;;;;1.77;1.40;;;-4.20;90.80;;;;;;5053461;28;20192;-56
2024/01/20 04:36:30;;;;;;;1.02;0.80;;;-4.30;91.00;;;;;;5052996;28;20215;-57
2024/01/20 04:38:56;;;;;;;1.33;1.17;;;-4.30;91.10;;;;;;5052934;28;20567;-57
2024/01/20 04:41:21;;;;;;;1.53;1.43;;;-4.30;91.30;;;;;;5052677;28;20178;-57
2024/01/20 04:43:47;;;;;;;2.17;1.70;;;-4.30;91.20;;;;;;5052715;28;20565;-61
2024/01/20 04:46:12;;;;;;;6.70;1.53;;;-4.30;90.80;;;;;;5052932;28;20167;-58
2024/01/20 04:48:38;;;;;;;1.87;1.30;;;-4.30;90.50;;;;;;5052761;28;20181;-57
2024/01/20 04:51:04;;;;;;;0.93;0.93;;;-4.30;90.50;;;;;;5034900;28;20168;-58
2024/01/20 04:53:29;;;;;;;1.00;1.00;;;-4.20;90.20;;;;;;5052588;28;20220;-58
2024/01/20 04:55:55;;;;;;;1.57;1.47;;;-4.10;89.60;;;;;;5052794;28;20420;-58
2024/01/20 04:58:21;;;;;;;1.23;1.23;;;-4.10;89.10;;;;;;5052854;28;20272;-58
2024/01/20 05:00:46;;;;;;;0.50;0.50;;;-4.10;89.50;;;;;;5052442;28;20169;-58
2024/01/20 05:03:12;;;;;;;1.27;1.17;;;-4.00;88.80;;;;;;5052242;28;20186;-59
2024/01/20 05:05:39;;;;;;;0.70;0.63;;;-3.90;87.90;;;;;;5052572;28;20158;-58
2024/01/20 05:08:05;;;;;;;1.52;1.42;;;-3.90;87.60;;;;;;5052344;28;20178;-58
2024/01/20 05:10:31;;;;;;;0.97;0.97;;;-3.90;88.60;;;;;;5052141;28;20182;-59
2024/01/20 05:12:56;;;;;;;1.27;1.00;;;-4.00;88.40;;;;;;5051675;28;20452;-58
2024/01/20 05:15:22;;;;;;;0.83;0.83;;;-3.90;88.60;;;;;;5052270;28;20897;-58
2024/01/20 05:17:48;;;;;;;0.87;0.87;;;-4.00;88.60;;;;;;5052177;28;20209;-59
2024/01/20 05:20:17;;;;;;;0.95;0.95;;;-4.00;89.00;;;;;;5052141;28;20253;-61
2024/01/20 05:22:43;;;;;;;0.88;0.88;;;-4.00;89.00;;;;;;5052258;28;20664;-60
2024/01/20 05:25:08;;;;;;;0.90;0.83;;;-4.10;88.80;;;;;;5052176;28;20219;-64
2024/01/20 05:27:34;;;;;;;1.00;1.00;;;-4.00;89.50;;;;;;5052107;28;20206;-58
2024/01/20 05:29:59;;;;;;;0.70;0.70;;;-4.10;89.40;;;;;;5051751;28;20182;-58
2024/01/20 05:32:25;;;;;;;1.30;1.20;;;-4.00;90.00;;;;;;5051342;28;20189;-59
2024/01/20 05:34:51;;;;;;;1.45;1.35;;;-4.00;90.00;;;;;;5051944;28;20227;-58
2024/01/20 05:37:17;;;;;;;1.67;1.40;;;-4.00;90.00;;;;;;5051973;28;20253;-58
2024/01/20 05:39:42;;;;;;;2.20;1.90;;;-4.00;90.00;;;;;;5052010;28;20711;-58
2024/01/20 05:42:08;;;;;;;0.70;0.70;;;-4.10;90.00;;;;;;5051755;28;20542;-58
2024/01/20 05:44:33;;;;;;;1.77;0.70;;;-3.60;96.10;;;;;;5051973;28;20244;-56
2024/01/20 05:46:59;;;;;;;0.70;0.70;;;-1.70;99.90;;;;;;5052044;28;20201;-58
2024/01/20 05:49:25;;;;;;;1.53;1.03;;;0.30;99.90;;;;;;5051797;28;20177;-58
2024/01/20 05:51:51;;;;;;;0.50;0.50;;;1.10;95.30;;;;;;5051423;28;20648;-60
2024/01/20 05:54:16;;;;;;;1.23;0.90;;;0.80;85.30;;;;;;5051598;28;20523;-59
2024/01/20 05:56:42;;;;;;;0.60;0.60;;;0.00;80.70;;;;;;5051586;28;20261;-59
2024/01/20 05:59:07;;;;;;;1.43;0.73;;;-0.70;79.80;;;;;;5051419;28;20292;-59
2024/01/20 06:01:33;;;;;;;2.53;0.77;;;-1.30;78.70;;;;;;5051164;28;20166;-57
2024/01/20 06:03:59;;;;;;;0.73;0.73;;;-1.90;79.70;;;;;;5051441;28;20281;-55
2024/01/20 06:06:24;;;;;;;0.53;0.53;;;-2.30;81.30;;;;;;5051522;28;20174;-57
2024/01/20 06:08:50;;;;;;;0.40;0.40;;;-2.80;81.90;;;;;;5051542;28;20181;-56
2024/01/20 06:11:16;;;;;;;1.08;0.98;;;-3.20;83.30;;;;;;5051243;28;20435;-55
2024/01/20 06:13:42;;;;;;;0.70;0.70;;;-3.40;84.80;;;;;;5072509;22;20257;-64
2024/01/20 06:16:10;;;;;;;0.50;0.50;;;-3.60;84.90;;;;;;5051174;28;20162;-64
2024/01/20 06:18:36;;;;;;;0.45;0.45;;;-3.60;85.80;;;;;;5051741;28;20616;-65
2024/01/20 06:21:02;;;;;;;0.60;0.60;;;-3.70;86.80;;;;;;5051230;28;20182;-63
2024/01/20 06:23:28;;;;;;;0.57;0.57;;;-3.80;87.30;;;;;;5051081;28;20194;-65
2024/01/20 06:25:54;;;;;;;0.50;0.50;;;-3.90;87.50;;;;;;5050938;28;20253;-65
2024/01/20 06:28:21;;;;;;;2.80;1.27;;;-4.00;87.30;;;;;;5051090;28;20617;-65
2024/01/20 06:30:49;;;;;;;0.70;0.70;;;-4.00;88.00;;;;;;5050175;28;20409;-65
2024/01/20 06:33:15;;;;;;;0.60;0.60;;;-4.00;87.80;;;;;;5051088;28;20261;-64
2024/01/20 06:35:41;;;;;;;2.80;1.30;;;-3.90;86.00;;;;;;5051058;28;20178;-65
2024/01/20 06:38:06;;;;;;;0.93;0.93;;;-4.00;85.60;;;;;;5051166;28;20209;-64
2024/01/20 06:40:32;;;;;;;0.80;0.80;;;-3.90;84.70;;;;;;5052616;28;20663;-64
2024/01/20 06:42:58;;;;;;;3.80;1.33;;;-3.80;85.10;;;;;;5051163;28;20193;-64
2024/01/20 06:45:23;;;;;;;0.60;0.60;;;-3.80;84.90;;;;;;5051114;28;20166;-64
2024/01/20 06:47:49;;;;;;;0.70;0.50;;;-3.70;83.20;;;;;;5050717;28;20170;-64
2024/01/20 06:50:15;;;;;;;0.80;0.80;;;-3.60;82.90;;;;;;5051107;28;20165;-64
2024/01/20 06:52:41;;;;;;;2.05;1.08;;;-3.50;83.10;;;;;;5050828;28;20170;-64
2024/01/20 06:55:07;;;;;;;0.73;0.73;;;;;;;;;;5052247;28;20198;-64
2024/01/20 06:57:33;;;;;;;1.52;0.77;;;-3.50;94.00;;;;;;5054854;28;20527;-65
2024/01/20 06:59:58;;;;;;;0.80;0.80;;;-3.50;83.40;;;;;;5054790;28;20240;-64
2024/01/20 07:02:24;;;;;;;0.93;0.87;;;-3.60;82.10;;;;;;5054235;28;20170;-64
2024/01/20 07:04:50;;;;;;;2.03;1.17;;;-3.60;82.60;;;;;;5054297;28;20213;-64
2024/01/20 07:07:16;;;;;;;0.60;0.60;;;-3.60;83.80;;;;;;5054793;28;20261;-64
2024/01/20 07:09:42;;;;;;;1.75;0.70;;;-3.60;83.40;;;;;;5054568;28;20177;-64
2024/01/20 07:12:08;;;;;;;1.10;1.00;;;-3.60;83.00;;;;;;5054211;28;20580;-65
2024/01/20 07:14:35;;;;;;;0.60;0.60;;;-3.60;81.80;;;;;;5054243;28;20206;-64
2024/01/20 07:17:01;;;;;;;0.77;0.77;;;-3.50;82.70;;;;;;5053570;28;20182;-64
2024/01/20 07:19:26;;;;;;;0.50;0.50;;;-3.40;83.20;;;;;;5054530;28;20227;-64
2024/01/20 07:21:52;;;;;;;0.50;0.50;;;-3.50;82.30;;;;;;5054545;28;21046;-65
2024/01/20 07:24:17;;;;;;;0.83;0.83;;;-3.40;83.60;;;;;;5054309;28;20190;-64
2024/01/20 07:26:43;;;;;;;0.93;0.93;;;-3.50;83.30;;;;;;5054504;28;20249;-65
2024/01/20 07:29:09;;;;;;;0.50;0.50;;;-3.40;84.20;;;;;;5054250;28;20171;-65
2024/01/20 07:31:34;;;;;;;0.73;0.73;;;-3.40;84.20;;;;;;5054092;28;20182;-65
2024/01/20 07:34:01;;;;;;;3.20;0.60;;;-3.40;83.90;;;;;;5054347;28;20660;-65
2024/01/20 07:36:26;;;;;;;0.40;0.40;;;-3.30;84.70;;;;;;5054272;28;20166;-61
2024/01/20 07:38:52;;;;;;;0.50;0.50;;;-3.40;83.70;;;;;;5054131;28;20213;-64
2024/01/20 07:41:18;;;;;;;0.77;0.77;;;-3.30;82.30;;;;;;5054035;28;20656;-64
2024/01/20 07:43:43;;;;;;;0.73;0.73;;;-3.20;82.20;;;;;;5053835;28;20690;-63
2024/01/20 07:46:10;;;;;;;0.43;0.43;;;-3.30;82.40;;;;;;5054152;28;20409;-63
2024/01/20 07:48:36;;;;;;;0.70;0.70;;;-3.30;82.90;;;;;;5052748;28;20705;-63
2024/01/20 07:51:02;;;;;;;0.60;0.60;;;-3.20;83.10;;;;;;5053623;28;20198;-64
2024/01/20 07:53:28;;;;;;;0.80;0.80;;;-3.20;81.80;;;;;;5053550;28;20436;-63
2024/01/20 07:55:53;;;;;;;7.40;1.00;;;-3.00;81.80;;;;;;5053790;28;20193;-63
2024/01/20 07:58:19;;;;;;;0.67;0.67;;;-3.00;82.10;;;;;;5053901;28;20255;-63
2024/01/20 08:00:45;;;;;;;0.77;0.77;;;-3.00;79.90;;;;;;5053663;28;20170;-63
2024/01/20 08:03:10;;;;;;;1.50;1.40;;;-3.00;79.60;;;;;;5054614;28;20166;-63
2024/01/20 08:05:36;;;;;;;0.57;0.57;;;-2.90;78.40;;;;;;5054116;28;20175;-63
2024/01/20 08:08:03;;;;;;;1.00;0.68;;;-2.70;75.60;;;;;;5053615;28;20686;-63
2024/01/20 08:10:28;;;;;;;0.60;0.60;;;-2.40;74.50;;;;;;5053535;28;20265;-64
2024/01/20 08:12:55;;;;;;;1.40;1.30;;;-1.80;77.10;;;;;;5053241;28;20201;-63
2024/01/20 08:15:22;;;;;;;0.70;0.50;;;-0.60;76.90;;;;;;5053445;28;20289;-64
2024/01/20 08:17:49;;;;;;;2.78;1.42;;;0.90;70.40;;;;;;5053427;28;20594;-63
2024/01/20 08:20:14;;;;;;;4.00;1.60;;;3.00;66.50;;;;;;5053186;28;20230;-64
2024/01/20 08:22:40;;;;;;;1.60;1.20;;;5.40;60.80;;;;;;5052919;28;20185;-64
2024/01/20 08:25:06;;;;;;;1.87;1.27;;;7.30;52.70;;;;;;5053315;28;20265;-64
2024/01/20 08:27:32;;;;;;;1.07;0.90;;;9.10;47.60;;;;;;5053260;28;20232;-64
2024/01/20 08:29:58;;;;;;;1.00;1.00;;;10.50;42.50;;;;;;5052164;28;20408;-64
2024/01/20 08:32:23;;;;;;;2.50;1.20;;;11.50;39.00;;;;;;5052581;28;20175;-64
2024/01/20 08:34:49;;;;;;;1.20;1.10;;;12.30;35.60;;;;;;5035209;28;20886;-64
2024/01/20 08:37:14;;;;;;;1.40;1.30;;;12.90;34.10;;;;;;5053130;28;20715;-64
2024/01/20 08:39:40;;;;;;;6.30;4.43;;;12.90;33.00;;;;;;5052760;28;20608;-64
2024/01/20 08:42:06;;;;;;;7.23;5.87;;;12.30;30.80;;;;;;5052211;28;20198;-64
2024/01/20 08:44:32;;;;;;;4.63;4.20;;;11.80;33.10;;;;;;5052929;28;20261;-64
2024/01/20 08:46:58;;;;;;;4.73;4.33;;;11.60;31.90;;;;;;5052769;28;20267;-64
2024/01/20 08:49:24;;;;;;;3.47;3.17;;;11.20;31.00;;;;;;5052794;28;20416;-64
2024/01/20 08:51:50;;;;;;;6.33;5.83;;;10.90;32.00;;;;;;5052361;28;20405;-64
2024/01/20 08:54:16;;;;;;;3.27;2.97;;;10.20;32.30;;;;;;5052642;28;20445;-64
2024/01/20 08:56:41;;;;;;;10.30;9.33;;;9.70;35.50;;;;;;5052818;28;20178;-65
2024/01/20 08:59:07;;;;;;;7.27;6.67;;;9.40;36.20;;;;;;5051089;28;20988;-64
2024/01/20 09:01:33;;;;;;;8.07;3.30;;;9.00;36.90;;;;;;5052241;28;20866;-64
2024/01/20 09:04:00;;;;;;;1.53;1.20;;;8.90;37.10;;;;;;5051953;28;20200;-64
2024/01/20 09:06:26;;;;;;;1.73;1.60;;;8.50;36.00;;;;;;5071816;28;20173;-63
2024/01/20 09:08:52;;;;;;;3.23;2.77;;;8.40;36.20;;;;;;5072468;28;20412;-64
2024/01/20 09:11:17;;;;;;;0.80;0.80;;;8.30;38.10;;;;;;5071969;28;20408;-63
2024/01/20 09:13:43;;;;;;;2.63;1.87;;;7.80;34.20;;;;;;5071872;28;20204;-63
2024/01/20 09:16:09;;;;;;;1.27;1.10;;;6.90;34.30;;;;;;5072534;28;20598;-63
2024/01/20 09:18:35;;;;;;;0.70;0.70;;;7.00;33.10;;;;;;5071324;28;20480;-63
2024/01/20 09:21:00;;;;;;;1.03;0.90;;;6.90;32.20;;;;;;5071966;28;20170;-64
2024/01/20 09:23:26;;;;;;;0.80;0.80;;;7.70;36.00;;;;;;5071997;28;20211;-63
2024/01/20 09:25:52;;;;;;;1.10;1.00;;;8.50;36.90;;;;;;5071970;28;20845;-63
2024/01/20 09:28:17;;;;;;;4.40;1.20;;;9.60;34.90;;;;;;5072753;28;20666;-63
2024/01/20 09:30:43;;;;;;;4.10;1.60;;;10.90;31.10;;;;;;5072094;28;20182;-63
2024/01/20 09:33:09;;;;;;;2.27;1.43;;;10.60;28.50;;;;;;5071785;28;20631;-64
2024/01/20 09:35:34;;;;;;;0.83;0.83;;;10.70;27.70;;;;;;5072207;28;20181;-64
2024/01/20 09:38:00;;;;;;;4.53;1.53;;;11.00;28.10;;;;;;5071994;28;20171;-63
2024/01/20 09:40:26;;;;;;;1.40;1.00;;;10.90;29.10;;;;;;5071746;28;20181;-64
2024/01/20 09:42:52;;;;;;;1.00;0.90;;;11.00;29.40;;;;;;5071303;28;20747;-64
2024/01/20 09:45:21;;;;;;;1.30;1.20;;;10.70;28.50;;;;;;5071643;28;20425;-64
2024/01/20 09:47:47;;;;;;;1.63;1.53;;;10.90;29.00;;;;;;5071793;28;20412;-64
2024/01/20 09:50:12;;;;;;;1.17;1.07;;;12.10;28.50;;;;;;5071784;28;20505;-63
2024/01/20 09:52:47;;;;;;;3.90;1.30;;;13.10;28.10;;;;;;5071356;28;20218;-63
2024/01/20 09:55:21;;;;;;;1.30;1.20;;;13.90;27.90;;;;;;5071648;28;20189;-64
2024/01/20 09:57:48;;;;;;;1.47;1.30;;;14.10;26.70;;;;;;5071631;28;20421;-64
2024/01/20 10:00:16;;;;;;;1.60;1.50;;;14.60;26.20;;;;;;5071507;28;20416;-64
2024/01/20 10:02:44;;;;;;;11.10;7.07;;;15.30;24.90;;;;;;5071138;28;20424;-64
2024/01/20 10:05:13;;;;;;;4.87;3.67;;;15.70;24.90;;;;;;5071728;28;20493;-64
2024/01/20 10:07:39;;;;;;;22.33;11.90;;;15.40;24.10;;;;;;5071516;28;20401;-64
2024/01/20 10:10:06;;;;;;;1.00;0.77;;;15.50;24.40;;;;;;5071479;28;20401;-64
2024/01/20 10:12:31;;;;;;;29.67;17.10;;;14.60;24.20;;;;;;5071817;28;20409;-64
2024/01/20 10:14:57;;;;;;;25.43;13.23;;;14.40;25.30;;;;;;5070549;28;20455;-63
2024/01/20 10:17:23;;;;;;;0.60;0.60;;;13.80;24.90;;;;;;5058147;28;20177;-65
2024/01/20 10:19:49;;;;;;;1.27;0.90;;;12.40;25.80;;;;;;5059922;28;20288;-64
2024/01/20 10:22:14;;;;;;;1.47;1.37;;;10.50;26.60;;;;;;5064421;28;20177;-64
2024/01/20 10:24:50;;;;;;;0.90;0.90;;;9.90;28.00;;;;;;5070959;28;20992;-64
2024/01/20 10:27:18;;;;;;;0.70;0.70;;;10.30;25.60;;;;;;5071310;28;20309;-65
2024/01/20 10:29:45;;;;;;;0.60;0.60;;;11.00;27.70;;;;;;5072028;28;20412;-64
2024/01/20 10:32:10;;;;;;;0.87;0.87;;;12.10;28.10;;;;;;5075248;28;20781;-64
2024/01/20 10:34:36;;;;;;;0.50;0.50;;;13.00;28.80;;;;;;5075166;28;20506;-64
2024/01/20 10:37:12;;;;;;;0.50;0.50;;;12.20;29.40;;;;;;5074988;28;20716;-64
2024/01/20 10:39:43;;;;;;;6.40;4.47;;;11.40;29.30;;;;;;5075084;28;20208;-64
2024/01/20 10:42:14;;;;;;;0.87;0.80;;;11.40;29.90;;;;;;5074983;28;20482;-64
2024/01/20 10:44:56;;;;;;;1.63;0.90;;;10.80;25.60;;;;;;5075182;28;20411;-63
2024/01/20 10:47:48;;;;;;;1.13;0.83;;;11.00;26.80;;;;;;5075737;28;20416;-64
2024/01/20 10:50:13;;;;;;;0.90;0.50;;;9.60;28.10;;;;;;5059917;28;20419;-63
2024/01/20 10:52:39;;;;;;;0.50;0.50;;;8.40;27.30;;;;;;5074536;28;20470;-63
2024/01/20 10:55:05;;;;;;;1.33;0.73;;;8.00;30.20;;;;;;5074358;28;20284;-63
2024/01/20 10:57:34;;;;;;;0.50;0.50;;;8.60;32.40;;;;;;5074770;28;20170;-63
2024/01/20 11:00:01;;;;;;;1.42;0.88;;;9.00;28.80;;;;;;5074924;28;20212;-64
2024/01/20 11:02:27;;;;;;;0.88;0.60;;;8.80;34.60;;;;;;5074122;28;20194;-63
2024/01/20 11:04:53;;;;;;;1.25;0.90;;;8.30;32.70;;;;;;5074523;28;20623;-63
2024/01/20 11:07:31;;;;;;;0.43;0.43;;;8.40;31.10;;;;;;5074566;28;20172;-63
2024/01/20 11:09:58;;;;;;;1.25;0.60;;;8.20;33.50;;;;;;5074586;28;20769;-63
2024/01/20 11:12:29;;;;;;;0.50;0.50;;;8.10;34.70;;;;;;5073683;28;20263;-63
2024/01/20 11:14:57;;;;;;;1.67;0.77;;;7.10;29.60;;;;;;5034464;28;20232;-62
2024/01/20 11:17:24;;;;;;;0.50;0.50;;;6.10;29.70;;;;;;5034741;28;20174;-62
2024/01/20 11:19:52;;;;;;;0.80;0.77;;;5.90;36.20;;;;;;5034652;28;20210;-61
2024/01/20 11:22:31;;;;;;;2.80;2.28;;;5.90;36.10;;;;;;5034320;28;20170;-62
2024/01/20 11:24:57;;;;;;;0.98;0.98;;;5.90;35.40;;;;;;5034562;28;20609;-62
2024/01/20 11:27:23;;;;;;;0.77;0.70;;;5.90;32.50;;;;;;5034555;28;20192;-62
2024/01/20 11:29:49;;;;;;;0.40;0.40;;;5.70;32.60;;;;;;5034482;28;20182;-62
2024/01/20 11:32:14;;;;;;;2.00;0.73;;;5.20;32.50;;;;;;5034266;28;20175;-62
2024/01/20 11:34:40;;;;;;;0.90;0.50;;;4.70;32.30;;;;;;5034516;28;20223;-62
2024/01/20 11:37:08;;;;;;;0.50;0.50;;;4.40;31.10;;;;;;5034563;28;20603;-62
2024/01/20 11:39:33;;;;;;;0.85;0.85;;;3.90;31.50;;;;;;5034337;28;20214;-62
2024/01/20 11:42:01;;;;;;;0.60;0.60;;;3.90;31.70;;;;;;5033713;28;20559;-62
2024/01/20 11:44:27;;;;;;;1.33;1.05;;;3.80;31.50;;;;;;5033882;28;20187;-62
2024/01/20 11:46:54;;;;;;;0.77;0.77;;;3.50;31.60;;;;;;5050486;28;20178;-62
2024/01/20 11:49:20;;;;;;;0.70;0.70;;;3.50;31.30;;;;;;5054115;28;20185;-62
2024/01/20 11:51:45;;;;;;;0.70;0.50;;;3.60;31.70;;;;;;5053802;28;20570;-62
2024/01/20 11:54:11;;;;;;;0.63;0.60;;;3.30;32.10;;;;;;5054015;28;20222;-61
2024/01/20 11:56:37;;;;;;;0.53;0.53;;;3.20;33.20;;;;;;5054045;28;20174;-61
2024/01/20 11:59:03;;;;;;;6.13;0.77;;;3.30;33.30;;;;;;5053802;28;20194;-62
2024/01/20 12:01:29;;;;;;;1.03;0.80;;;3.60;33.00;;;;;;5053602;28;20435;-62
2024/01/20 12:03:54;;;;;;;0.90;0.70;;;3.60;30.80;;;;;;5053749;28;20939;-62
2024/01/20 12:06:20;;;;;;;0.60;0.57;;;3.70;30.80;;;;;;5053931;28;21132;-62
2024/01/20 12:08:46;;;;;;;0.70;0.57;;;3.70;30.20;;;;;;5053870;28;20173;-62
2024/01/20 12:11:22;;;;;;;1.13;0.67;;;3.70;30.20;;;;;;5055208;28;20674;-61
2024/01/20 12:13:49;;;;;;;0.80;0.70;;;3.60;30.10;;;;;;5053274;28;20236;-62
2024/01/20 12:16:18;;;;;;;4.00;0.75;;;3.60;32.70;;;;;;5053346;28;20170;-62
2024/01/20 12:18:44;;;;;;;1.35;1.00;;;3.30;33.00;;;;;;5053303;28;20671;-62
2024/01/20 12:21:10;;;;;;;5.70;0.90;;;3.10;32.90;;;;;;5053311;28;20202;-61
2024/01/20 12:23:35;;;;;;;0.50;0.50;;;3.50;32.30;;;;;;5052949;28;20668;-61
2024/01/20 12:26:01;;;;;;;0.50;0.50;;;3.70;33.70;;;;;;5053252;28;20177;-63
2024/01/20 12:28:27;;;;;;;0.50;0.50;;;3.20;34.20;;;;;;5053530;28;20209;-62
2024/01/20 12:30:53;;;;;;;0.50;0.50;;;3.40;35.50;;;;;;5052737;28;20249;-62
2024/01/20 12:33:23;;;;;;;1.33;0.63;;;3.40;33.40;;;;;;5035123;28;20194;-62
2024/01/20 12:35:49;;;;;;;1.85;0.90;;;3.30;31.00;;;;;;5052750;28;20167;-62
2024/01/20 12:38:14;;;;;;;0.50;0.50;;;3.30;30.70;;;;;;5052624;28;20194;-62
2024/01/20 12:40:40;;;;;;;0.97;0.40;;;3.20;30.90;;;;;;5052540;28;20243;-62
2024/01/20 12:43:06;;;;;;;0.60;0.60;;;3.10;31.10;;;;;;5052107;28;20170;-62